sensor_id;sensor_type;location;lat;lon;timestamp;P1;durP1;ratioP1;P2;durP2;ratioP2
1887;SDS011;944;51.574;6.980;2022-12-10T05:59:59;107.20;;;41.80;;
1887;SDS011;944;51.574;6.980;2022-12-10T06:29:42;124.03;;;46.07;;
1887;SDS011;944;51.574;6.980;2022-12-10T06:36:35;124.87;;;46.20;;
1887;SDS011;944;51.574;6.980;2022-12-10T06:47:18;153.10;;;52.97;;
1887;SDS011;944;51.574;6.980;2022-12-10T06:55:23;143.07;;;48.53;;
1887;SDS011;944;51.574;6.980;2022-12-10T08:19:49;194.80;;;55.67;;
1887;SDS011;944;51.574;6.980;2022-12-10T11:20:15;136.53;;;52.20;;
1887;SDS011;944;51.574;6.980;2022-12-10T12:11:30;127.07;;;48.10;;
1887;SDS011;944;51.574;6.980;2022-12-10T12:14:19;133.67;;;49.03;;
1887;SDS011;944;51.574;6.980;2022-12-10T12:20:32;136.80;;;49.97;;
1887;SDS011;944;51.574;6.980;2022-12-10T12:23:13;135.13;;;50.27;;
1887;SDS011;944;51.574;6.980;2022-12-10T12:25:54;124.77;;;49.10;;
1887;SDS011;944;51.574;6.980;2022-12-10T12:28:48;119.00;;;48.47;;
1887;SDS011;944;51.574;6.980;2022-12-10T12:31:31;134.47;;;45.03;;
1887;SDS011;944;51.574;6.980;2022-12-10T12:34:21;129.20;;;48.07;;
1887;SDS011;944;51.574;6.980;2022-12-10T12:41:13;115.80;;;49.40;;
1887;SDS011;944;51.574;6.980;2022-12-10T12:43:47;120.23;;;45.03;;
1887;SDS011;944;51.574;6.980;2022-12-10T12:46:32;107.37;;;43.90;;
1887;SDS011;944;51.574;6.980;2022-12-10T12:49:06;102.13;;;43.13;;
1887;SDS011;944;51.574;6.980;2022-12-10T12:51:42;131.40;;;52.10;;
1887;SDS011;944;51.574;6.980;2022-12-10T12:54:16;118.97;;;48.60;;
1887;SDS011;944;51.574;6.980;2022-12-10T12:56:53;118.00;;;47.40;;
1887;SDS011;944;51.574;6.980;2022-12-10T12:59:39;115.33;;;44.80;;
1887;SDS011;944;51.574;6.980;2022-12-10T13:02:23;117.37;;;45.80;;
1887;SDS011;944;51.574;6.980;2022-12-10T13:05:12;119.83;;;48.50;;
1887;SDS011;944;51.574;6.980;2022-12-10T13:07:41;101.53;;;44.40;;
1887;SDS011;944;51.574;6.980;2022-12-10T13:10:10;106.20;;;42.77;;
1887;SDS011;944;51.574;6.980;2022-12-10T13:13:05;112.87;;;46.17;;
1887;SDS011;944;51.574;6.980;2022-12-10T22:31:21;138.17;;;39.00;;
1887;SDS011;944;51.574;6.980;2022-12-10T22:34:32;142.67;;;42.67;;
1887;SDS011;944;51.574;6.980;2022-12-10T22:37:26;160.27;;;41.97;;
1887;SDS011;944;51.574;6.980;2022-12-10T22:40:30;160.60;;;44.23;;
1887;SDS011;944;51.574;6.980;2022-12-10T22:43:27;154.00;;;43.50;;
1887;SDS011;944;51.574;6.980;2022-12-10T22:46:15;155.27;;;41.97;;
1887;SDS011;944;51.574;6.980;2022-12-10T22:48:48;160.37;;;43.60;;
1887;SDS011;944;51.574;6.980;2022-12-10T22:51:25;170.20;;;44.50;;
1887;SDS011;944;51.574;6.980;2022-12-10T22:54:08;152.90;;;40.93;;
1887;SDS011;944;51.574;6.980;2022-12-10T22:56:57;156.20;;;41.27;;
1887;SDS011;944;51.574;6.980;2022-12-10T22:59:27;158.23;;;43.70;;
1887;SDS011;944;51.574;6.980;2022-12-10T23:02:03;154.20;;;41.50;;
1887;SDS011;944;51.574;6.980;2022-12-10T23:04:42;136.33;;;41.63;;
1887;SDS011;944;51.574;6.980;2022-12-10T23:11:09;137.87;;;39.73;;
1887;SDS011;944;51.574;6.980;2022-12-10T23:13:54;147.53;;;40.60;;
1887;SDS011;944;51.574;6.980;2022-12-10T23:16:48;147.20;;;41.33;;
1887;SDS011;944;51.574;6.980;2022-12-10T23:19:22;134.90;;;39.87;;
1887;SDS011;944;51.574;6.980;2022-12-10T23:33:25;130.20;;;36.97;;
1887;SDS011;944;51.574;6.980;2022-12-10T23:48:00;112.10;;;30.63;;
